Time;durP1;ratioP1;P1;durP2;ratioP2;P2;SDS_P1;SDS_P2;PMS_P1;PMS_P2;Temp;Humidity;BMP_temperature;BMP_pressure;BME280_temperature;BME280_humidity;BME280_pressure;Samples;Min_cycle;Max_cycle;Signal;HPM_P1;HPM_P2
2022/04/08 00:02:12;;;;;;;4.07;1.00;;;18.40;99.90;;;;;;5054382;28;20681;-68
2022/04/08 00:04:39;;;;;;;3.60;1.23;;;18.40;99.90;;;;;;5054248;28;20230;-66
2022/04/08 00:07:07;;;;;;;6.93;1.10;;;18.40;99.90;;;;;;5058939;28;20208;-68
2022/04/08 00:09:34;;;;;;;5.43;1.03;;;18.40;99.90;;;;;;5071443;28;20182;-68
2022/04/08 00:12:02;;;;;;;6.03;1.43;;;18.30;99.90;;;;;;5074184;28;20214;-68
2022/04/08 00:14:29;;;;;;;3.77;1.13;;;18.40;99.90;;;;;;5072826;28;20251;-67
2022/04/08 00:16:56;;;;;;;6.10;1.30;;;18.40;99.90;;;;;;5054043;28;20185;-67
2022/04/08 00:19:24;;;;;;;4.87;1.13;;;18.50;99.90;;;;;;5055012;28;20203;-67
2022/04/08 00:21:51;;;;;;;6.57;1.60;;;18.60;99.90;;;;;;5072273;28;20175;-67
2022/04/08 00:24:18;;;;;;;5.97;1.10;;;18.70;99.90;;;;;;5070104;28;20179;-68
2022/04/08 00:26:47;;;;;;;4.97;1.00;;;18.70;99.90;;;;;;5073554;28;20214;-67
2022/04/08 00:29:15;;;;;;;4.87;1.30;;;18.60;99.90;;;;;;5071123;28;20181;-67
2022/04/08 00:31:42;;;;;;;3.87;0.77;;;18.70;99.90;;;;;;5062516;28;20238;-66
2022/04/08 00:34:09;;;;;;;2.27;0.60;;;18.80;99.90;;;;;;5070069;28;20226;-67
2022/04/08 00:36:37;;;;;;;4.63;1.07;;;18.90;99.90;;;;;;5073434;28;20171;-68
2022/04/08 00:39:05;;;;;;;5.17;1.27;;;19.00;99.90;;;;;;5073136;28;20188;-68
2022/04/08 00:41:32;;;;;;;2.17;0.80;;;18.90;99.90;;;;;;5073423;28;20176;-68
2022/04/08 00:44:00;;;;;;;5.53;1.00;;;18.90;99.90;;;;;;5073643;28;20176;-68
2022/04/08 00:46:27;;;;;;;4.87;1.00;;;19.00;99.90;;;;;;5073196;28;20211;-68
2022/04/08 00:48:54;;;;;;;5.33;1.07;;;19.10;99.90;;;;;;5055588;28;20793;-66
2022/04/08 00:51:23;;;;;;;3.10;0.80;;;19.20;99.90;;;;;;5067326;28;20176;-67
2022/04/08 00:53:50;;;;;;;4.00;0.83;;;19.50;99.90;;;;;;5068955;28;20604;-66
2022/04/08 00:56:19;;;;;;;8.10;1.27;;;19.80;99.90;;;;;;5053367;28;20187;-66
2022/04/08 00:58:46;;;;;;;3.50;0.93;;;19.90;99.90;;;;;;5069547;28;20184;-65
2022/04/08 01:01:14;;;;;;;2.33;0.50;;;20.10;99.90;;;;;;5072653;28;20200;-65
2022/04/08 01:03:41;;;;;;;3.53;0.77;;;20.10;99.90;;;;;;5073338;28;20248;-67
2022/04/08 01:06:09;;;;;;;3.07;0.60;;;20.20;99.90;;;;;;5070846;28;20588;-66
2022/04/08 01:08:37;;;;;;;3.97;0.63;;;20.30;99.90;;;;;;5072682;28;20176;-67
2022/04/08 01:11:04;;;;;;;1.67;0.70;;;20.40;99.90;;;;;;5063972;28;20186;-67
2022/04/08 01:13:32;;;;;;;2.83;1.13;;;20.60;99.90;;;;;;5052731;28;20181;-68
2022/04/08 01:15:59;;;;;;;4.93;1.27;;;20.50;99.90;;;;;;5054943;28;20688;-67
2022/04/08 01:18:26;;;;;;;5.07;1.00;;;20.70;99.90;;;;;;5072532;28;20183;-68
2022/04/08 01:20:54;;;;;;;2.93;0.80;;;20.90;99.90;;;;;;5072693;28;20241;-68
2022/04/08 01:23:21;;;;;;;3.23;1.00;;;21.20;99.90;;;;;;5072862;28;20230;-68
2022/04/08 01:25:48;;;;;;;4.63;1.07;;;21.70;99.90;;;;;;5072244;28;20223;-69
2022/04/08 01:28:15;;;;;;;4.87;1.30;;;22.10;99.90;;;;;;5071677;28;20190;-66
2022/04/08 01:30:43;;;;;;;7.17;1.17;;;22.60;99.90;;;;;;5072213;28;20516;-67
2022/04/08 01:33:10;;;;;;;4.33;0.93;;;22.70;99.90;;;;;;5069119;28;20176;-66
2022/04/08 01:35:38;;;;;;;6.63;1.07;;;22.20;99.90;;;;;;5065626;28;20263;-66
2022/04/08 01:38:05;;;;;;;4.33;1.07;;;22.20;99.90;;;;;;5052452;28;20182;-67
2022/04/08 01:40:33;;;;;;;5.47;0.93;;;22.20;99.90;;;;;;5052516;28;20242;-67
2022/04/08 01:43:00;;;;;;;118.20;16.43;;;22.30;99.90;;;;;;5071648;28;20267;-67
2022/04/08 01:45:28;;;;;;;4.73;1.27;;;22.40;99.90;;;;;;5059909;28;20748;-67
2022/04/08 01:47:55;;;;;;;9.80;1.30;;;22.70;99.90;;;;;;5053565;28;20185;-67
2022/04/08 01:50:22;;;;;;;7.97;1.87;;;22.80;99.90;;;;;;5071846;28;20190;-66
2022/04/08 01:52:50;;;;;;;7.33;1.60;;;22.60;99.90;;;;;;5072351;28;20201;-68
2022/04/08 01:55:18;;;;;;;6.17;1.60;;;23.00;99.90;;;;;;5062331;28;20188;-68
2022/04/08 01:57:45;;;;;;;6.63;1.60;;;23.40;99.90;;;;;;5052196;28;20172;-67
2022/04/08 02:00:13;;;;;;;5.40;1.17;;;23.50;99.90;;;;;;5052192;28;20183;-68
2022/04/08 02:02:42;;;;;;;9.57;1.20;;;23.60;99.90;;;;;;5060702;28;20187;-67
2022/04/08 02:05:09;;;;;;;6.43;1.30;;;23.80;99.90;;;;;;5066104;28;20563;-67
2022/04/08 02:07:37;;;;;;;5.87;1.47;;;24.30;99.90;;;;;;5071802;28;20293;-68
2022/04/08 02:10:05;;;;;;;6.23;1.63;;;25.20;99.90;;;;;;5071696;28;20222;-68
2022/04/08 02:12:33;;;;;;;6.77;1.30;;;26.00;99.90;;;;;;5070441;28;20187;-67
2022/04/08 02:15:00;;;;;;;4.83;1.20;;;25.70;99.90;;;;;;5071589;28;20246;-67
2022/04/08 02:17:30;;;;;;;4.40;1.47;;;26.00;99.90;;;;;;5071948;28;20203;-66
2022/04/08 02:19:58;;;;;;;3.97;0.70;;;26.20;99.90;;;;;;5071801;28;20244;-66
2022/04/08 02:22:26;;;;;;;7.70;1.57;;;26.70;99.90;;;;;;5071841;28;20175;-66
2022/04/08 02:24:53;;;;;;;8.40;1.27;;;25.70;99.90;;;;;;5071885;28;20313;-66
2022/04/08 02:27:23;;;;;;;5.83;1.20;;;24.40;99.90;;;;;;5070540;28;20223;-65
2022/04/08 02:29:51;;;;;;;7.63;1.23;;;24.10;99.90;;;;;;5071920;28;20184;-66
2022/04/08 02:32:18;;;;;;;3.10;0.80;;;24.50;99.90;;;;;;5071758;28;20773;-67
2022/04/08 02:34:45;;;;;;;3.10;0.97;;;24.30;99.90;;;;;;5071768;28;20633;-68
2022/04/08 02:37:13;;;;;;;5.27;0.87;;;25.00;99.90;;;;;;5071740;28;20271;-67
2022/04/08 02:39:40;;;;;;;15.70;1.00;;;25.70;99.90;;;;;;5071778;28;20176;-66
2022/04/08 02:42:08;;;;;;;2.23;1.13;;;26.00;99.90;;;;;;5079918;28;20529;-66
2022/04/08 02:44:35;;;;;;;4.97;0.70;;;26.20;99.90;;;;;;5090677;28;20184;-66
2022/04/08 02:47:02;;;;;;;7.10;0.93;;;26.90;99.90;;;;;;5094256;28;20287;-66
2022/04/08 02:49:30;;;;;;;3.83;0.80;;;27.30;99.90;;;;;;5095759;28;20171;-67
2022/04/08 02:51:57;;;;;;;8.00;1.33;;;27.30;99.90;;;;;;5096064;28;20568;-66
2022/04/08 02:54:25;;;;;;;8.63;1.10;;;27.10;99.90;;;;;;5095814;28;20210;-66
2022/04/08 02:56:52;;;;;;;3.27;0.63;;;26.30;99.90;;;;;;5095888;28;20175;-67
2022/04/08 02:59:19;;;;;;;4.37;0.90;;;26.00;99.90;;;;;;5095779;28;20640;-67
2022/04/08 03:01:47;;;;;;;2.57;0.57;;;26.10;99.90;;;;;;5095854;28;20679;-68
2022/04/08 03:04:14;;;;;;;6.33;0.97;;;26.20;99.90;;;;;;5061362;28;20190;-68
2022/04/08 03:06:41;;;;;;;3.17;0.70;;;26.00;99.90;;;;;;5055454;28;20220;-68
2022/04/08 03:09:09;;;;;;;4.47;1.10;;;25.10;99.90;;;;;;5055234;28;20180;-66
2022/04/08 03:11:36;;;;;;;5.50;1.00;;;24.40;99.90;;;;;;5067761;28;20184;-67
2022/04/08 03:14:05;;;;;;;6.77;1.33;;;25.00;99.90;;;;;;5074964;28;20250;-66
2022/04/08 03:16:32;;;;;;;8.03;1.23;;;25.40;99.90;;;;;;5068768;28;20270;-66
2022/04/08 03:19:00;;;;;;;6.67;0.70;;;25.80;99.90;;;;;;5073823;28;20168;-66
2022/04/08 03:21:27;;;;;;;6.40;1.00;;;26.10;99.90;;;;;;5074351;28;20207;-67
2022/04/08 03:23:55;;;;;;;6.07;1.03;;;25.60;99.90;;;;;;5074723;28;20246;-67
2022/04/08 03:26:22;;;;;;;9.73;1.33;;;25.00;99.90;;;;;;5068783;28;20237;-67
2022/04/08 03:28:50;;;;;;;7.73;1.40;;;23.50;99.90;;;;;;5074498;28;20205;-67
2022/04/08 03:31:18;;;;;;;10.03;1.83;;;22.80;99.90;;;;;;5074531;28;20180;-67
2022/04/08 03:33:45;;;;;;;5.97;1.20;;;22.60;99.90;;;;;;5072967;28;20180;-67
2022/04/08 03:36:12;;;;;;;7.50;1.30;;;22.80;99.90;;;;;;5071151;28;20608;-66
2022/04/08 03:38:39;;;;;;;11.20;1.37;;;22.80;99.90;;;;;;5074638;28;20180;-65
2022/04/08 03:41:07;;;;;;;5.60;0.90;;;22.90;99.90;;;;;;5074717;28;20699;-68
2022/04/08 03:43:34;;;;;;;5.40;0.97;;;23.10;99.90;;;;;;5073408;28;20187;-67
2022/04/08 03:46:02;;;;;;;4.87;1.10;;;23.60;99.90;;;;;;5074499;28;20610;-66
2022/04/08 03:48:29;;;;;;;7.47;1.27;;;24.10;99.90;;;;;;5074590;28;20645;-65
2022/04/08 03:50:56;;;;;;;8.00;0.93;;;24.20;99.90;;;;;;5074646;28;20703;-66
2022/04/08 03:53:24;;;;;;;2.87;0.73;;;24.10;99.90;;;;;;5074554;28;20180;-67
2022/04/08 03:55:51;;;;;;;6.13;0.80;;;24.10;99.90;;;;;;5074559;28;20218;-66
2022/04/08 03:58:18;;;;;;;3.17;0.70;;;24.00;99.90;;;;;;5073237;28;20183;-67
2022/04/08 04:00:46;;;;;;;2.73;0.70;;;23.70;99.90;;;;;;5073876;28;20190;-66
2022/04/08 04:03:13;;;;;;;3.30;0.90;;;23.30;99.90;;;;;;5074061;28;20187;-66
2022/04/08 04:05:43;;;;;;;5.07;0.77;;;22.90;99.90;;;;;;5074248;28;20217;-66
2022/04/08 04:08:15;;;;;;;8.27;1.00;;;22.90;99.90;;;;;;5074364;28;20700;-66
2022/04/08 04:10:42;;;;;;;5.90;0.80;;;22.90;99.90;;;;;;5074293;28;20207;-65
2022/04/08 04:13:09;;;;;;;6.17;1.47;;;23.10;99.90;;;;;;5074200;28;20179;-65
2022/04/08 04:15:37;;;;;;;5.67;1.07;;;23.80;99.90;;;;;;5074099;28;20227;-66
2022/04/08 04:18:04;;;;;;;5.20;1.10;;;24.40;99.90;;;;;;5073835;28;20215;-67
2022/04/08 04:20:32;;;;;;;4.60;1.20;;;24.70;99.90;;;;;;5074054;28;20172;-67
2022/04/08 04:23:00;;;;;;;4.80;0.90;;;24.20;99.90;;;;;;5074076;28;20203;-68
2022/04/08 04:25:28;;;;;;;7.83;1.03;;;24.00;99.90;;;;;;5073133;28;20226;-68
2022/04/08 04:27:56;;;;;;;5.50;0.93;;;23.70;99.90;;;;;;5073170;28;20294;-68
2022/04/08 04:30:26;;;;;;;9.07;1.33;;;23.50;99.90;;;;;;5064967;28;20192;-69
2022/04/08 04:32:55;;;;;;;6.17;1.10;;;23.50;99.90;;;;;;5053699;28;20188;-69
2022/04/08 04:35:23;;;;;;;6.23;1.10;;;23.30;99.90;;;;;;5054079;28;20656;-67
2022/04/08 04:37:50;;;;;;;3.90;0.97;;;23.30;99.90;;;;;;5073369;28;20192;-68
2022/04/08 04:40:17;;;;;;;3.83;0.90;;;23.30;99.90;;;;;;5073698;28;20255;-68
2022/04/08 04:42:45;;;;;;;4.37;1.33;;;23.30;99.90;;;;;;5073604;28;20211;-68
2022/04/08 04:45:13;;;;;;;5.50;1.23;;;23.30;99.90;;;;;;5074063;28;20175;-68
2022/04/08 04:47:40;;;;;;;4.07;0.77;;;23.10;99.90;;;;;;5073517;28;20208;-69
2022/04/08 04:50:08;;;;;;;3.97;1.03;;;22.90;99.90;;;;;;5073588;28;20641;-68
2022/04/08 04:52:35;;;;;;;9.23;1.03;;;22.70;99.90;;;;;;5072287;28;20233;-68
2022/04/08 04:55:04;;;;;;;7.47;1.50;;;22.70;99.90;;;;;;5073403;28;20582;-68
2022/04/08 04:57:31;;;;;;;5.43;1.00;;;22.80;99.90;;;;;;5073387;28;20199;-67
2022/04/08 04:59:58;;;;;;;4.57;1.00;;;22.90;99.90;;;;;;5073335;28;20179;-68
2022/04/08 05:02:26;;;;;;;5.50;1.10;;;23.00;99.90;;;;;;5073299;28;20168;-68
2022/04/08 05:04:53;;;;;;;7.40;1.10;;;22.90;99.90;;;;;;5073181;28;20183;-68
2022/04/08 05:07:20;;;;;;;3.30;0.70;;;22.90;99.90;;;;;;5073051;28;20580;-68
2022/04/08 05:09:48;;;;;;;9.60;1.90;;;23.20;99.90;;;;;;5072884;28;20172;-69
2022/04/08 05:12:15;;;;;;;4.40;0.93;;;23.30;99.90;;;;;;5073105;28;20175;-68
2022/04/08 05:14:42;;;;;;;7.27;1.03;;;23.40;99.90;;;;;;5072800;28;20307;-67
2022/04/08 05:17:10;;;;;;;6.70;1.10;;;23.10;99.90;;;;;;5072758;28;20173;-68
2022/04/08 05:19:37;;;;;;;4.53;1.20;;;22.90;99.90;;;;;;5072842;28;20176;-68
2022/04/08 05:22:04;;;;;;;8.33;1.90;;;22.70;99.90;;;;;;5072880;28;20656;-67
2022/04/08 05:24:32;;;;;;;7.30;1.20;;;22.40;99.90;;;;;;5073073;28;20176;-68
2022/04/08 05:26:59;;;;;;;6.57;1.03;;;22.00;99.90;;;;;;5072743;28;20669;-67
2022/04/08 05:29:26;;;;;;;5.37;1.10;;;21.50;99.90;;;;;;5072624;28;20182;-67
2022/04/08 05:31:54;;;;;;;5.53;1.03;;;20.90;99.90;;;;;;5072655;28;20170;-68
2022/04/08 05:34:21;;;;;;;5.93;1.10;;;20.50;99.90;;;;;;5072712;28;20233;-68
2022/04/08 05:36:48;;;;;;;5.07;1.27;;;20.50;99.90;;;;;;5072659;28;20187;-68
2022/04/08 05:39:15;;;;;;;8.53;1.47;;;20.70;99.90;;;;;;5072502;28;20551;-67
2022/04/08 05:41:43;;;;;;;5.63;1.07;;;20.70;99.90;;;;;;5061533;28;20193;-67
2022/04/08 05:44:10;;;;;;;9.83;1.50;;;20.80;99.90;;;;;;5052838;28;20212;-68
2022/04/08 05:46:37;;;;;;;4.07;0.90;;;20.80;99.90;;;;;;5052221;28;20239;-69
2022/04/08 05:49:05;;;;;;;3.07;0.93;;;21.00;99.90;;;;;;5052218;28;20207;-68
2022/04/08 05:51:34;;;;;;;6.30;1.20;;;21.00;99.90;;;;;;5052185;28;20651;-68
2022/04/08 05:54:02;;;;;;;9.33;1.30;;;20.90;99.90;;;;;;5064236;28;20184;-68
2022/04/08 05:56:29;;;;;;;4.83;1.10;;;21.00;99.90;;;;;;5072342;28;20174;-68
2022/04/08 05:58:57;;;;;;;4.93;1.17;;;21.10;99.90;;;;;;5071924;28;20172;-69
2022/04/08 06:01:25;;;;;;;5.93;1.60;;;21.10;99.90;;;;;;5069860;28;20260;-68
2022/04/08 06:03:52;;;;;;;7.27;1.37;;;21.10;99.90;;;;;;5052028;28;20717;-68
2022/04/08 06:06:19;;;;;;;12.47;1.57;;;21.10;99.90;;;;;;5061286;28;20207;-68
2022/04/08 06:08:47;;;;;;;8.33;1.47;;;20.90;99.90;;;;;;5072113;28;20248;-69
2022/04/08 06:11:14;;;;;;;4.90;0.73;;;21.00;99.90;;;;;;5071297;28;20229;-68
2022/04/08 06:13:41;;;;;;;6.33;1.17;;;21.00;99.90;;;;;;5051888;28;20221;-69
2022/04/08 06:16:09;;;;;;;7.53;1.60;;;21.00;99.90;;;;;;5052023;28;20185;-68
2022/04/08 06:18:36;;;;;;;4.00;0.90;;;20.90;99.90;;;;;;5051880;28;20186;-68
2022/04/08 06:21:04;;;;;;;7.00;0.83;;;20.90;99.90;;;;;;5051284;28;20230;-68
2022/04/08 06:23:31;;;;;;;7.67;1.33;;;20.90;99.90;;;;;;5068128;28;20214;-68
2022/04/08 06:25:59;;;;;;;3.70;0.90;;;20.90;99.90;;;;;;5071931;28;20214;-69
2022/04/08 06:28:26;;;;;;;5.83;1.43;;;20.90;99.90;;;;;;5071660;28;20246;-68
2022/04/08 06:30:53;;;;;;;8.40;1.30;;;20.80;99.90;;;;;;5071986;28;20175;-68
2022/04/08 06:33:21;;;;;;;4.97;1.00;;;20.70;99.90;;;;;;5056903;28;20184;-68
2022/04/08 06:35:50;;;;;;;4.20;1.50;;;20.70;99.90;;;;;;5051868;28;20185;-68
2022/04/08 06:38:17;;;;;;;7.20;1.37;;;20.70;99.90;;;;;;5051463;28;20195;-68
2022/04/08 06:40:45;;;;;;;3.30;1.00;;;20.70;99.90;;;;;;5051619;28;20188;-68
2022/04/08 06:43:12;;;;;;;3.37;1.17;;;20.70;99.90;;;;;;5064570;28;20203;-68
2022/04/08 06:45:39;;;;;;;3.33;1.10;;;20.60;99.90;;;;;;5071346;28;20271;-67
2022/04/08 06:48:07;;;;;;;3.77;0.80;;;20.50;99.90;;;;;;5071879;28;20180;-67
2022/04/08 06:50:34;;;;;;;4.37;1.20;;;20.40;99.90;;;;;;5071877;28;20542;-67
2022/04/08 06:53:03;;;;;;;4.67;0.80;;;20.40;99.90;;;;;;5069883;28;20188;-67
2022/04/08 06:55:31;;;;;;;8.43;1.00;;;20.30;99.90;;;;;;5070491;28;20184;-69
2022/04/08 06:58:00;;;;;;;7.60;1.10;;;20.30;99.90;;;;;;5071610;28;20270;-68
2022/04/08 07:00:27;;;;;;;2.23;1.07;;;20.30;99.90;;;;;;5056594;28;20672;-68
2022/04/08 07:02:54;;;;;;;8.27;1.30;;;20.30;99.90;;;;;;5053579;28;20221;-67
2022/04/08 07:05:25;;;;;;;4.37;1.30;;;20.20;99.90;;;;;;5051699;28;20184;-68
2022/04/08 07:07:52;;;;;;;4.47;1.23;;;20.10;99.90;;;;;;5051466;28;20176;-68
2022/04/08 07:10:19;;;;;;;4.63;0.90;;;20.20;99.90;;;;;;5051435;28;20544;-67
2022/04/08 07:12:47;;;;;;;5.90;1.10;;;20.20;99.90;;;;;;5063954;28;20229;-67
2022/04/08 07:15:14;;;;;;;9.60;1.40;;;20.10;99.90;;;;;;5071209;28;20247;-67
2022/04/08 07:17:42;;;;;;;4.43;1.00;;;20.10;99.90;;;;;;5062119;28;20533;-68
2022/04/08 07:20:10;;;;;;;7.90;1.37;;;20.10;99.90;;;;;;5064727;28;20187;-68
2022/04/08 07:22:38;;;;;;;7.70;1.50;;;20.00;99.90;;;;;;5071082;28;20175;-68
2022/04/08 07:25:05;;;;;;;3.67;1.17;;;20.00;99.90;;;;;;5059907;28;20184;-67
2022/04/08 07:27:46;;;;;;;7.83;1.67;;;20.00;99.90;;;;;;5051276;28;20261;-68
2022/04/08 07:30:15;;;;;;;9.33;2.00;;;19.90;99.90;;;;;;5069899;28;20188;-68
2022/04/08 07:32:42;;;;;;;6.40;1.70;;;19.80;99.90;;;;;;5072875;28;20637;-67
2022/04/08 07:35:11;;;;;;;6.33;1.60;;;19.70;99.90;;;;;;5075033;28;20216;-67
2022/04/08 07:37:41;;;;;;;10.00;1.30;;;19.70;99.90;;;;;;5074579;28;20184;-67
2022/04/08 07:40:11;;;;;;;9.10;1.50;;;19.70;99.90;;;;;;5070221;28;20187;-67
2022/04/08 07:42:39;;;;;;;5.20;1.40;;;19.60;99.90;;;;;;5055515;28;20192;-67
2022/04/08 07:45:08;;;;;;;14.13;1.60;;;19.50;99.90;;;;;;5054955;28;20168;-67
2022/04/08 07:47:36;;;;;;;4.13;1.13;;;19.40;99.90;;;;;;5055113;28;20227;-67
2022/04/08 07:50:12;;;;;;;8.43;1.80;;;19.30;99.90;;;;;;5055011;28;20173;-67
2022/04/08 07:52:40;;;;;;;7.03;1.80;;;19.20;99.90;;;;;;5054859;28;20291;-67
2022/04/08 07:55:09;;;;;;;8.77;2.47;;;19.10;99.90;;;;;;5053967;28;20219;-66
2022/04/08 07:57:47;;;;;;;5.23;1.57;;;19.10;99.90;;;;;;5054828;28;20191;-67
2022/04/08 08:00:16;;;;;;;4.43;1.30;;;19.00;99.90;;;;;;5057968;28;20254;-67
2022/04/08 08:02:44;;;;;;;4.93;1.20;;;19.00;99.90;;;;;;5074663;28;20187;-67
2022/04/08 08:05:12;;;;;;;12.57;1.60;;;19.10;99.90;;;;;;5070086;28;20284;-67
2022/04/08 08:07:51;;;;;;;9.83;1.77;;;19.10;99.90;;;;;;5072598;28;20369;-68
2022/04/08 08:10:20;;;;;;;8.57;2.07;;;19.10;99.90;;;;;;5064525;28;20246;-68
2022/04/08 08:12:48;;;;;;;4.93;1.30;;;19.00;99.90;;;;;;5054421;28;20531;-68
2022/04/08 08:15:16;;;;;;;7.77;1.57;;;19.00;99.90;;;;;;5054292;28;20224;-68
2022/04/08 08:17:43;;;;;;;9.40;2.87;;;19.00;99.90;;;;;;5055241;28;20192;-67
2022/04/08 08:20:11;;;;;;;6.77;1.67;;;19.00;99.90;;;;;;5066481;28;20184;-68
2022/04/08 08:22:39;;;;;;;10.27;1.77;;;19.00;99.90;;;;;;5073707;28;20633;-67
2022/04/08 08:25:08;;;;;;;8.00;1.80;;;18.90;99.90;;;;;;5074327;28;20246;-68
2022/04/08 08:27:39;;;;;;;8.53;2.07;;;18.80;99.90;;;;;;5074209;28;20215;-69
2022/04/08 08:30:10;;;;;;;4.90;1.37;;;18.80;99.90;;;;;;5055572;28;20200;-68
2022/04/08 08:32:43;;;;;;;3.90;1.40;;;18.70;99.90;;;;;;5054832;28;20189;-67
2022/04/08 08:35:17;;;;;;;2.83;1.27;;;18.70;99.90;;;;;;5052714;28;20262;-68
2022/04/08 08:37:45;;;;;;;6.47;1.37;;;18.70;99.90;;;;;;5066569;28;20183;-68
2022/04/08 08:40:15;;;;;;;6.00;1.53;;;18.60;99.90;;;;;;5074125;28;20187;-68
2022/04/08 08:42:44;;;;;;;4.60;1.63;;;18.70;99.90;;;;;;5054632;28;20192;-67
2022/04/08 08:45:14;;;;;;;4.73;1.57;;;18.70;99.90;;;;;;5052948;28;20199;-67
2022/04/08 08:47:44;;;;;;;10.73;1.63;;;18.70;99.90;;;;;;5054356;28;20580;-68
2022/04/08 08:50:12;;;;;;;8.00;1.80;;;18.70;99.90;;;;;;5054595;28;20179;-69
2022/04/08 08:52:53;;;;;;;5.47;1.33;;;18.60;99.90;;;;;;5055546;28;20276;-67
2022/04/08 08:55:20;;;;;;;9.07;1.87;;;18.50;99.90;;;;;;5054889;28;20195;-68
2022/04/08 08:57:49;;;;;;;6.20;2.20;;;18.40;99.90;;;;;;5054292;28;20282;-68
2022/04/08 09:00:19;;;;;;;6.87;1.73;;;18.40;99.90;;;;;;5066982;28;20192;-68
2022/04/08 09:02:49;;;;;;;5.43;1.97;;;18.50;99.90;;;;;;5070447;28;20270;-68
2022/04/08 09:05:25;;;;;;;4.43;1.60;;;18.50;99.90;;;;;;5073538;28;20239;-68
2022/04/08 09:08:05;;;;;;;8.67;2.07;;;18.60;99.90;;;;;;5068198;28;20713;-68
2022/04/08 09:10:49;;;;;;;8.37;1.77;;;18.50;99.90;;;;;;5066362;28;20208;-69
2022/04/08 09:13:22;;;;;;;9.27;1.97;;;18.50;99.90;;;;;;5073455;28;20172;-68
2022/04/08 09:16:02;;;;;;;8.73;2.30;;;18.60;99.90;;;;;;5062061;28;20544;-67
2022/04/08 09:18:34;;;;;;;6.40;2.17;;;18.60;99.90;;;;;;5053054;28;20190;-68
2022/04/08 09:21:02;;;;;;;11.87;3.03;;;18.60;99.90;;;;;;5053145;28;20284;-68
2022/04/08 09:23:33;;;;;;;9.30;2.73;;;18.60;99.90;;;;;;5051824;28;20196;-68
2022/04/08 09:26:02;;;;;;;7.50;2.10;;;18.60;99.90;;;;;;5070660;28;20212;-68
2022/04/08 09:28:37;;;;;;;9.70;2.93;;;18.60;99.90;;;;;;5053939;28;20267;-68
2022/04/08 09:31:06;;;;;;;11.87;2.80;;;18.60;99.90;;;;;;5052993;28;20546;-69
2022/04/08 09:33:34;;;;;;;14.07;2.70;;;18.60;99.90;;;;;;5052835;28;20546;-68
2022/04/08 09:36:01;;;;;;;8.87;3.70;;;18.70;99.90;;;;;;5052896;28;20199;-68
2022/04/08 09:38:33;;;;;;;11.17;2.53;;;18.60;99.90;;;;;;5070543;28;20187;-68
2022/04/08 09:41:10;;;;;;;9.57;2.70;;;18.60;99.90;;;;;;5072736;28;20271;-68
2022/04/08 09:43:39;;;;;;;9.23;3.13;;;18.50;99.90;;;;;;5071296;28;20628;-67
2022/04/08 09:46:17;;;;;;;10.50;3.00;;;18.50;99.90;;;;;;5072630;28;20210;-68
2022/04/08 09:48:45;;;;;;;9.20;2.70;;;18.50;99.90;;;;;;5072216;28;20184;-68
2022/04/08 09:51:21;;;;;;;12.43;3.13;;;18.50;99.90;;;;;;5054818;28;20183;-68
2022/04/08 09:54:00;;;;;;;12.43;3.10;;;18.60;99.90;;;;;;5052788;28;20205;-69
2022/04/08 09:56:29;;;;;;;16.13;3.37;;;18.70;99.90;;;;;;5066278;28;20175;-68
2022/04/08 09:59:01;;;;;;;19.10;3.17;;;18.70;99.90;;;;;;5052421;28;20540;-69
2022/04/08 10:01:29;;;;;;;15.20;3.10;;;18.70;99.90;;;;;;5052583;28;20180;-68
2022/04/08 10:03:57;;;;;;;13.93;3.33;;;18.70;99.90;;;;;;5051251;28;20172;-66
2022/04/08 10:06:25;;;;;;;18.03;3.53;;;18.70;99.90;;;;;;5052275;28;20216;-68
2022/04/08 10:08:55;;;;;;;15.80;3.43;;;18.70;99.90;;;;;;5052770;28;20259;-68
2022/04/08 10:11:59;;;;;;;12.67;2.70;;;18.70;99.90;;;;;;5051413;28;20269;-68
2022/04/08 10:14:57;;;;;;;20.67;4.20;;;18.70;99.90;;;;;;5064577;28;20231;-68
2022/04/08 10:17:31;;;;;;;11.67;3.10;;;18.70;99.90;;;;;;5069858;28;20195;-69
2022/04/08 10:20:22;;;;;;;15.13;2.80;;;18.60;99.90;;;;;;5051930;28;20201;-69
2022/04/08 10:23:18;;;;;;;14.93;3.20;;;18.60;99.90;;;;;;5052150;28;20205;-68
2022/04/08 10:25:58;;;;;;;11.30;3.23;;;18.60;99.90;;;;;;5051380;28;20716;-68
2022/04/08 10:28:36;;;;;;;15.07;3.60;;;18.50;99.90;;;;;;5051103;28;20224;-68
2022/04/08 10:31:24;;;;;;;16.33;3.50;;;18.50;99.90;;;;;;5050485;28;20185;-68
2022/04/08 10:33:57;;;;;;;11.73;2.90;;;18.50;99.90;;;;;;5052120;28;20384;-68
2022/04/08 10:36:44;;;;;;;21.83;2.83;;;18.50;99.90;;;;;;5050823;28;20543;-66
2022/04/08 10:39:24;;;;;;;12.17;3.17;;;18.60;99.90;;;;;;5066187;28;20263;-68
2022/04/08 10:41:54;;;;;;;12.57;2.73;;;18.60;99.90;;;;;;5071988;28;20178;-68
2022/04/08 10:44:33;;;;;;;15.30;3.03;;;18.60;99.90;;;;;;5072025;28;20213;-68
2022/04/08 10:47:15;;;;;;;9.77;3.40;;;18.60;99.90;;;;;;5066504;28;20220;-68
2022/04/08 10:49:53;;;;;;;18.47;3.57;;;18.60;99.90;;;;;;5070390;28;20191;-68
2022/04/08 10:52:25;;;;;;;14.97;3.20;;;18.60;99.90;;;;;;5062349;28;20665;-68
2022/04/08 10:55:04;;;;;;;19.13;4.03;;;18.60;99.90;;;;;;5051530;28;20182;-67
2022/04/08 10:57:39;;;;;;;17.27;3.63;;;18.50;99.90;;;;;;5053044;28;20707;-68
2022/04/08 11:00:12;;;;;;;8.67;2.87;;;18.50;99.90;;;;;;5071867;28;20220;-67
2022/04/08 11:02:42;;;;;;;11.37;2.80;;;18.40;99.90;;;;;;5070667;28;20180;-68
2022/04/08 11:05:14;;;;;;;16.47;3.33;;;18.30;99.90;;;;;;5071765;28;20634;-68
2022/04/08 11:07:51;;;;;;;12.23;3.20;;;18.30;99.90;;;;;;5071873;28;20212;-69
2022/04/08 11:10:21;;;;;;;15.73;3.07;;;18.20;99.90;;;;;;5055839;28;20207;-68
2022/04/08 11:12:50;;;;;;;14.30;3.30;;;18.10;99.90;;;;;;5055639;28;20180;-68
2022/04/08 11:15:20;;;;;;;20.00;4.60;;;18.20;99.90;;;;;;5054348;28;20224;-68
2022/04/08 11:17:48;;;;;;;27.43;3.63;;;18.20;99.90;;;;;;5070746;28;20557;-68
2022/04/08 11:20:20;;;;;;;26.10;4.23;;;18.20;99.90;;;;;;5061737;28;20653;-69
2022/04/08 11:22:52;;;;;;;12.73;3.43;;;18.30;99.90;;;;;;5057005;28;20192;-67
2022/04/08 11:25:25;;;;;;;17.40;3.63;;;18.30;99.90;;;;;;5056382;28;20211;-69
2022/04/08 11:27:57;;;;;;;19.20;4.73;;;18.30;99.90;;;;;;5056602;28;20299;-68
2022/04/08 11:30:26;;;;;;;22.90;4.50;;;18.40;99.90;;;;;;5056492;28;20248;-68
2022/04/08 11:32:53;;;;;;;20.70;3.60;;;18.40;99.90;;;;;;5056286;28;20322;-68
2022/04/08 11:35:20;;;;;;;19.60;3.20;;;18.40;99.90;;;;;;5056405;28;20177;-68
2022/04/08 11:37:48;;;;;;;17.83;4.43;;;18.40;99.90;;;;;;5056306;28;20172;-69
2022/04/08 11:40:18;;;;;;;15.97;3.70;;;18.30;99.90;;;;;;5074343;28;20187;-68
2022/04/08 11:42:46;;;;;;;15.90;4.27;;;18.30;99.90;;;;;;5076370;28;20168;-69
2022/04/08 11:45:17;;;;;;;18.03;4.10;;;18.30;99.90;;;;;;5076221;28;20175;-67
2022/04/08 11:47:49;;;;;;;27.60;4.80;;;18.30;99.90;;;;;;5063105;28;20212;-69
2022/04/08 11:50:40;;;;;;;16.47;3.67;;;18.30;99.90;;;;;;5070792;28;20233;-68
2022/04/08 11:53:20;;;;;;;14.50;3.43;;;18.20;99.90;;;;;;5075865;28;20192;-68
2022/04/08 11:56:04;;;;;;;17.57;3.70;;;18.20;99.90;;;;;;5076385;28;20172;-69
2022/04/08 11:58:31;;;;;;;15.07;3.47;;;18.20;99.90;;;;;;5074665;28;20598;-68
2022/04/08 12:01:01;;;;;;;15.77;3.80;;;18.20;99.90;;;;;;5075596;28;20545;-68
2022/04/08 12:03:30;;;;;;;17.20;3.77;;;18.20;99.90;;;;;;5075849;28;20686;-67
2022/04/08 12:05:59;;;;;;;14.60;3.73;;;18.30;99.90;;;;;;5075735;28;20261;-68
2022/04/08 12:08:27;;;;;;;20.43;4.10;;;18.40;99.90;;;;;;5075167;28;20231;-68
2022/04/08 12:10:57;;;;;;;12.73;3.10;;;18.40;99.90;;;;;;5075055;28;20266;-68
2022/04/08 12:13:31;;;;;;;13.97;3.50;;;18.40;99.90;;;;;;5075623;28;20175;-67
2022/04/08 12:16:00;;;;;;;12.47;3.30;;;18.40;99.90;;;;;;5074765;28;20227;-67
2022/04/08 12:18:32;;;;;;;20.53;3.27;;;18.40;99.90;;;;;;5074323;28;20208;-66
2022/04/08 12:21:05;;;;;;;14.37;3.60;;;18.40;99.90;;;;;;5055106;28;20234;-68
2022/04/08 12:23:33;;;;;;;13.10;3.50;;;18.40;99.90;;;;;;5055530;28;20180;-68
2022/04/08 12:26:05;;;;;;;13.40;3.80;;;18.40;99.90;;;;;;5053942;28;20208;-67
2022/04/08 12:28:35;;;;;;;12.47;3.30;;;18.40;99.90;;;;;;5066405;28;20183;-68
2022/04/08 12:31:31;;;;;;;18.83;3.70;;;18.30;99.90;;;;;;5073140;28;20188;-68
2022/04/08 12:33:59;;;;;;;15.80;3.37;;;18.30;99.90;;;;;;5070663;28;20192;-67
2022/04/08 12:36:28;;;;;;;16.70;3.40;;;18.20;99.90;;;;;;5074810;28;20180;-69
2022/04/08 12:38:55;;;;;;;17.37;2.93;;;18.20;99.90;;;;;;5071794;28;20190;-68
2022/04/08 12:41:22;;;;;;;16.27;3.70;;;18.10;99.90;;;;;;5053739;28;20183;-67
2022/04/08 12:43:51;;;;;;;13.70;3.47;;;18.10;99.90;;;;;;5064514;28;20175;-67
2022/04/08 12:46:19;;;;;;;15.60;4.30;;;18.10;99.90;;;;;;5074779;28;20219;-67
2022/04/08 12:48:46;;;;;;;9.77;3.27;;;18.00;99.90;;;;;;5065915;28;20191;-67
2022/04/08 12:51:13;;;;;;;13.67;3.17;;;18.00;99.90;;;;;;5075038;28;20176;-67
2022/04/08 12:53:41;;;;;;;10.60;2.70;;;18.00;99.90;;;;;;5074893;28;20274;-68
2022/04/08 12:56:08;;;;;;;15.80;3.53;;;17.90;99.90;;;;;;5073578;28;20181;-67